createdAt,value
2022-12-24T00:01:34.005Z,11.68
2022-12-24T00:04:00.902Z,11.79
2022-12-24T00:06:27.395Z,11.80
2022-12-24T00:08:53.945Z,11.39
2022-12-24T00:11:20.962Z,11.50
2022-12-24T00:13:47.637Z,11.48
2022-12-24T00:16:14.655Z,11.42
2022-12-24T00:18:45.956Z,11.11
2022-12-24T00:21:13.641Z,11.59
2022-12-24T00:23:40.587Z,11.35
2022-12-24T00:26:07.152Z,11.11
2022-12-24T00:28:33.807Z,11.20
2022-12-24T00:31:00.396Z,11.23
2022-12-24T00:33:26.868Z,11.28
2022-12-24T00:35:53.692Z,11.32
2022-12-24T00:38:20.493Z,11.13
2022-12-24T00:40:46.950Z,11.17
2022-12-24T00:43:13.564Z,11.17
2022-12-24T00:45:39.958Z,11.16
2022-12-24T00:48:06.700Z,11.25
2022-12-24T00:50:33.357Z,11.14
2022-12-24T00:53:00.017Z,11.17
2022-12-24T00:55:26.465Z,10.99
2022-12-24T00:57:52.865Z,11.25
2022-12-24T01:00:19.737Z,11.03
2022-12-24T01:02:46.519Z,10.96
2022-12-24T01:05:13.320Z,10.89
2022-12-24T01:07:44.651Z,10.53
2022-12-24T01:10:13.604Z,10.74
2022-12-24T01:12:40.928Z,10.54
2022-12-24T01:15:08.670Z,10.72
2022-12-24T01:17:35.740Z,10.78
2022-12-24T01:20:03.587Z,10.70
2022-12-24T01:22:30.142Z,10.87
2022-12-24T01:24:56.617Z,11.02
2022-12-24T01:27:23.373Z,10.98
2022-12-24T01:29:49.803Z,11.05
2022-12-24T01:32:16.577Z,10.80
2022-12-24T01:34:43.111Z,10.72
2022-12-24T01:37:09.625Z,10.56
2022-12-24T01:39:36.113Z,10.74
2022-12-24T01:42:21.226Z,10.39
2022-12-24T01:44:51.286Z,10.33
2022-12-24T01:47:25.735Z,10.33
2022-12-24T01:49:57.262Z,10.24
2022-12-24T01:52:30.443Z,10.41
2022-12-24T01:55:03.736Z,10.35
2022-12-24T01:57:34.649Z,10.58
2022-12-24T02:00:05.277Z,10.46
2022-12-24T02:02:33.445Z,10.93
2022-12-24T02:05:10.807Z,10.93
2022-12-24T02:07:37.598Z,10.99
2022-12-24T02:10:05.373Z,11.04
2022-12-24T02:12:36.104Z,10.98
2022-12-24T02:15:03.529Z,11.33
2022-12-24T02:18:06.627Z,11.25
2022-12-24T02:20:58.365Z,11.48
2022-12-24T02:24:03.550Z,11.31
2022-12-24T02:26:54.004Z,11.23
2022-12-24T02:29:36.727Z,10.92
2022-12-24T02:32:13.413Z,11.07
2022-12-24T02:34:50.479Z,11.11
2022-12-24T02:37:20.232Z,11.02
2022-12-24T02:39:54.289Z,11.30
2022-12-24T02:42:26.578Z,11.41
2022-12-24T02:45:04.804Z,11.43
2022-12-24T02:47:34.189Z,11.19
2022-12-24T02:50:02.453Z,11.53
2022-12-24T02:52:34.724Z,11.42
2022-12-24T02:55:19.649Z,11.70
2022-12-24T02:58:07.442Z,11.66
2022-12-24T03:00:43.781Z,11.65
2022-12-24T03:03:36.826Z,11.55
2022-12-24T03:06:23.917Z,11.65
2022-12-24T03:09:28.134Z,11.83
2022-12-24T03:12:04.710Z,11.65
2022-12-24T03:14:34.760Z,11.82
2022-12-24T03:17:03.189Z,11.92
2022-12-24T03:19:31.474Z,11.98
2022-12-24T03:21:59.430Z,11.92
2022-12-24T03:24:26.056Z,11.90
2022-12-24T03:26:52.933Z,12.11
2022-12-24T03:29:20.482Z,11.64
2022-12-24T03:31:52.907Z,11.70
2022-12-24T03:34:19.966Z,12.12
2022-12-24T03:36:47.997Z,12.14
2022-12-24T03:39:14.456Z,11.93
2022-12-24T03:41:40.878Z,12.09
2022-12-24T03:44:07.337Z,12.10
2022-12-24T03:46:33.917Z,12.09
2022-12-24T03:49:00.472Z,12.09
2022-12-24T03:51:27.503Z,11.97
2022-12-24T03:53:55.720Z,11.81
2022-12-24T03:56:22.760Z,11.58
2022-12-24T03:58:49.557Z,11.43
2022-12-24T04:01:17.197Z,11.38
2022-12-24T04:03:44.636Z,11.39
2022-12-24T04:06:14.726Z,11.31
2022-12-24T04:08:41.753Z,11.27
2022-12-24T04:11:10.642Z,11.27
2022-12-24T04:13:37.531Z,11.25
2022-12-24T04:16:08.434Z,11.23
2022-12-24T04:18:35.380Z,11.29
2022-12-24T04:21:02.014Z,11.43
2022-12-24T04:23:31.518Z,11.05
2022-12-24T04:26:02.239Z,11.16
2022-12-24T04:28:30.014Z,10.96
2022-12-24T04:31:01.280Z,11.54
2022-12-24T04:33:27.963Z,11.33
2022-12-24T04:35:54.788Z,11.56
2022-12-24T04:38:21.221Z,11.69
2022-12-24T04:40:48.004Z,11.72
2022-12-24T04:43:15.413Z,11.39
2022-12-24T04:45:41.824Z,11.49
2022-12-24T04:48:08.384Z,11.29
2022-12-24T04:50:34.985Z,11.54
2022-12-24T04:53:01.524Z,11.27
2022-12-24T04:55:27.967Z,11.40
2022-12-24T04:57:54.507Z,11.01
2022-12-24T05:00:21.068Z,11.20
2022-12-24T05:02:47.977Z,11.19
2022-12-24T05:05:14.753Z,10.95
2022-12-24T05:07:41.207Z,10.91
2022-12-24T05:10:08.514Z,10.82
2022-12-24T05:12:34.961Z,11.20
2022-12-24T05:15:01.583Z,11.39
2022-12-24T05:17:28.167Z,11.32
2022-12-24T05:19:54.667Z,11.13
2022-12-24T05:22:39.490Z,11.03
2022-12-24T05:25:24.760Z,10.65
2022-12-24T05:27:51.665Z,10.49
2022-12-24T05:30:18.284Z,10.40
2022-12-24T05:32:44.972Z,10.43
2022-12-24T05:35:11.508Z,10.44
2022-12-24T05:37:38.072Z,10.67
2022-12-24T05:40:04.986Z,10.68
2022-12-24T05:42:31.389Z,10.36
2022-12-24T05:44:57.830Z,10.19
2022-12-24T05:47:24.418Z,10.42
2022-12-24T05:49:51.016Z,10.56
2022-12-24T05:52:17.459Z,10.58
2022-12-24T05:54:43.950Z,10.50
2022-12-24T05:57:10.663Z,10.49
2022-12-24T05:59:37.274Z,10.43
2022-12-24T06:02:03.931Z,10.35
2022-12-24T06:04:30.672Z,10.02
2022-12-24T06:06:57.397Z,10.08
2022-12-24T06:09:23.999Z,10.04
2022-12-24T06:11:50.485Z,9.97
2022-12-24T06:14:17.043Z,10.04
2022-12-24T06:16:43.441Z,9.86
2022-12-24T06:19:09.953Z,10.01
2022-12-24T06:21:36.394Z,10.38
2022-12-24T06:24:03.215Z,10.26
2022-12-24T06:26:29.662Z,10.39
2022-12-24T06:28:56.085Z,10.48
2022-12-24T06:31:23.657Z,10.31
2022-12-24T06:33:51.542Z,10.31
2022-12-24T06:36:25.047Z,10.37
2022-12-24T06:38:53.421Z,10.22
2022-12-24T06:41:21.085Z,10.01
2022-12-24T06:43:50.011Z,10.58
2022-12-24T06:46:17.519Z,10.59
2022-12-24T06:48:45.394Z,10.82
2022-12-24T06:51:13.822Z,10.65
2022-12-24T06:53:40.556Z,10.78
2022-12-24T06:56:12.196Z,10.54
2022-12-24T06:58:40.770Z,10.48
2022-12-24T07:01:13.525Z,10.39
2022-12-24T07:03:40.598Z,10.38
2022-12-24T07:06:08.177Z,10.40
2022-12-24T07:08:36.404Z,10.42
2022-12-24T07:11:03.676Z,10.64
2022-12-24T07:13:31.707Z,10.78
2022-12-24T07:15:58.878Z,10.94
2022-12-24T07:18:25.781Z,10.87
2022-12-24T07:20:52.622Z,10.89
2022-12-24T07:23:19.149Z,10.83
2022-12-24T07:25:45.713Z,11.05
2022-12-24T07:28:12.702Z,10.92
2022-12-24T07:30:39.291Z,10.81
2022-12-24T07:33:05.881Z,10.94
2022-12-24T07:35:32.482Z,10.94
2022-12-24T07:37:58.885Z,11.25
2022-12-24T07:40:25.615Z,11.23
2022-12-24T07:42:52.204Z,11.41
2022-12-24T07:45:18.752Z,11.33
2022-12-24T07:47:45.308Z,11.25
2022-12-24T07:50:11.982Z,11.01
2022-12-24T07:52:38.511Z,10.97
2022-12-24T07:55:05.381Z,11.00
2022-12-24T07:57:31.922Z,10.93
2022-12-24T07:59:58.464Z,11.09
2022-12-24T08:02:25.234Z,11.16
2022-12-24T08:04:52.031Z,11.13
2022-12-24T08:07:18.576Z,11.27
2022-12-24T08:09:46.302Z,11.50
2022-12-24T08:12:12.815Z,11.73
2022-12-24T08:14:39.483Z,11.84
2022-12-24T08:17:05.974Z,11.99
2022-12-24T08:19:32.575Z,11.82
2022-12-24T08:21:59.186Z,12.20
2022-12-24T08:24:25.715Z,12.05
2022-12-24T08:26:52.189Z,12.30
2022-12-24T08:29:18.760Z,12.46
2022-12-24T08:31:45.360Z,12.38
2022-12-24T08:34:12.081Z,12.38
2022-12-24T08:36:38.676Z,12.34
2022-12-24T08:39:08.602Z,12.16
2022-12-24T08:41:35.622Z,12.12
2022-12-24T08:44:02.140Z,12.13
2022-12-24T08:46:28.717Z,12.16
2022-12-24T08:48:55.252Z,12.20
2022-12-24T08:51:21.820Z,12.11
2022-12-24T08:53:48.358Z,12.17
2022-12-24T08:56:14.939Z,12.13
2022-12-24T08:58:41.573Z,12.18
2022-12-24T09:01:17.258Z,12.28
2022-12-24T09:03:44.353Z,12.49
2022-12-24T09:06:11.890Z,12.73
2022-12-24T09:08:38.674Z,12.92
2022-12-24T09:11:11.923Z,12.97
2022-12-24T09:13:39.106Z,13.57
2022-12-24T09:16:06.544Z,14.03
2022-12-24T09:18:33.381Z,13.41
2022-12-24T09:21:11.374Z,12.99
2022-12-24T09:23:41.891Z,13.13
2022-12-24T09:26:10.278Z,13.25
2022-12-24T09:28:36.787Z,13.38
2022-12-24T09:31:05.143Z,13.69
2022-12-24T09:33:34.431Z,12.43
2022-12-24T09:36:01.819Z,12.70
2022-12-24T09:38:28.917Z,12.86
2022-12-24T09:40:56.268Z,12.99
2022-12-24T09:43:26.489Z,13.40
2022-12-24T09:46:11.552Z,12.97
2022-12-24T09:48:43.734Z,12.46
2022-12-24T09:51:16.183Z,13.26
2022-12-24T09:53:57.360Z,12.98
2022-12-24T09:56:27.493Z,13.56
2022-12-24T09:59:01.952Z,13.60
2022-12-24T10:01:34.053Z,13.55
2022-12-24T10:04:04.136Z,13.67
2022-12-24T10:06:44.668Z,13.93
2022-12-24T10:09:37.165Z,14.06
2022-12-24T10:12:45.921Z,13.60
2022-12-24T10:15:31.425Z,14.21
2022-12-24T10:18:18.198Z,14.79
2022-12-24T10:20:49.610Z,14.82
2022-12-24T10:23:22.070Z,15.17
2022-12-24T10:26:05.900Z,14.41
2022-12-24T10:28:44.007Z,14.94
2022-12-24T10:31:10.894Z,15.02
2022-12-24T10:33:49.970Z,15.17
2022-12-24T10:36:19.255Z,13.79
2022-12-24T10:38:46.690Z,13.89
2022-12-24T10:41:15.152Z,12.78
2022-12-24T10:43:45.084Z,13.70
2022-12-24T10:46:32.969Z,13.57
2022-12-24T10:49:01.969Z,14.25
2022-12-24T10:51:58.722Z,14.37
2022-12-24T10:54:28.128Z,14.31
2022-12-24T10:57:02.413Z,14.18
2022-12-24T10:59:49.516Z,13.65
2022-12-24T11:02:29.881Z,14.08
2022-12-24T11:04:59.423Z,14.07
2022-12-24T11:07:26.947Z,14.39
2022-12-24T11:09:58.389Z,13.47
2022-12-24T11:12:28.298Z,13.44
2022-12-24T11:15:17.653Z,13.68
2022-12-24T11:17:59.207Z,14.03
2022-12-24T11:20:30.321Z,13.64
2022-12-24T11:22:57.880Z,13.59
2022-12-24T11:25:32.745Z,13.94
2022-12-24T11:28:30.162Z,13.35
2022-12-24T11:31:06.055Z,12.78
2022-12-24T11:33:45.902Z,13.40
2022-12-24T11:36:13.559Z,13.62
2022-12-24T11:38:40.698Z,14.44
2022-12-24T11:41:11.561Z,14.35
2022-12-24T11:43:45.044Z,14.40
2022-12-24T11:46:15.152Z,13.49
2022-12-24T11:48:43.883Z,13.84
2022-12-24T11:51:30.677Z,13.61
2022-12-24T11:54:06.102Z,13.17
2022-12-24T11:56:41.185Z,13.23
2022-12-24T11:59:18.102Z,13.16
2022-12-24T12:01:56.817Z,13.69
2022-12-24T12:04:30.472Z,13.27
2022-12-24T12:07:00.647Z,13.02
2022-12-24T12:09:32.501Z,13.84
2022-12-24T12:12:20.467Z,15.04
2022-12-24T12:14:57.680Z,13.37
2022-12-24T12:17:33.825Z,13.63
2022-12-24T12:20:11.247Z,13.74
2022-12-24T12:23:05.721Z,13.83
2022-12-24T12:25:37.316Z,13.28
2022-12-24T12:28:11.819Z,13.52
2022-12-24T12:30:41.083Z,12.90
2022-12-24T12:33:20.055Z,13.40
2022-12-24T12:35:48.905Z,13.18
2022-12-24T12:38:22.884Z,13.58
2022-12-24T12:41:04.637Z,13.11
2022-12-24T12:44:02.953Z,13.39
2022-12-24T12:46:58.820Z,13.51
2022-12-24T12:50:08.424Z,13.27
2022-12-24T12:53:12.360Z,13.81
2022-12-24T12:55:53.803Z,13.86
2022-12-24T12:58:26.957Z,12.57
2022-12-24T13:01:03.521Z,13.15
2022-12-24T13:04:07.324Z,12.64
2022-12-24T13:06:58.151Z,13.11
2022-12-24T13:09:43.382Z,13.17
2022-12-24T13:12:31.243Z,13.41
2022-12-24T13:15:19.581Z,13.54
2022-12-24T13:18:18.144Z,13.21
2022-12-24T13:20:50.390Z,13.26
2022-12-24T13:23:22.759Z,12.74
2022-12-24T13:25:55.032Z,12.66
2022-12-24T13:28:24.744Z,13.03
2022-12-24T13:31:01.319Z,12.56
2022-12-24T13:33:34.050Z,12.38
2022-12-24T13:36:07.957Z,12.59
2022-12-24T13:38:46.350Z,13.07
2022-12-24T13:41:41.179Z,13.09
2022-12-24T13:44:14.126Z,13.22
2022-12-24T13:46:58.253Z,13.13
2022-12-24T13:49:54.827Z,13.16
2022-12-24T13:52:24.968Z,13.38
2022-12-24T13:54:54.167Z,13.43
2022-12-24T13:57:26.291Z,14.11
2022-12-24T14:00:21.033Z,13.63
2022-12-24T14:03:02.879Z,14.09
2022-12-24T14:05:47.163Z,14.08
2022-12-24T14:08:22.795Z,13.98
2022-12-24T14:11:07.773Z,14.31
2022-12-24T14:13:40.400Z,14.46
2022-12-24T14:16:16.393Z,14.67
2022-12-24T14:18:57.922Z,14.59
2022-12-24T14:21:51.846Z,14.80
2022-12-24T14:24:25.712Z,14.56
2022-12-24T14:26:57.137Z,14.39
2022-12-24T14:29:33.906Z,13.75
2022-12-24T14:32:04.678Z,13.65
2022-12-24T14:34:31.785Z,13.81
2022-12-24T14:37:01.592Z,13.61
2022-12-24T14:39:34.225Z,13.60
2022-12-24T14:42:29.429Z,13.14
2022-12-24T14:45:34.019Z,13.53
2022-12-24T14:48:28.515Z,13.67
2022-12-24T14:51:18.222Z,13.74
2022-12-24T14:54:14.855Z,13.78
2022-12-24T14:56:41.435Z,13.50
2022-12-24T14:59:19.329Z,13.23
2022-12-24T15:01:47.017Z,13.31
2022-12-24T15:04:17.621Z,13.21
2022-12-24T15:06:56.806Z,13.09
2022-12-24T15:09:31.855Z,13.27
2022-12-24T15:12:03.600Z,13.15
2022-12-24T15:14:39.073Z,13.47
2022-12-24T15:17:07.542Z,13.48
2022-12-24T15:19:38.060Z,13.42
2022-12-24T15:22:09.614Z,13.35
2022-12-24T15:24:44.563Z,12.96
2022-12-24T15:27:20.623Z,12.82
2022-12-24T15:29:50.299Z,12.89
2022-12-24T15:32:19.096Z,12.98
2022-12-24T15:34:48.578Z,12.96
2022-12-24T15:37:20.692Z,12.99
2022-12-24T15:39:56.710Z,12.98
2022-12-24T15:42:25.089Z,12.79
2022-12-24T15:45:27.651Z,12.82
2022-12-24T15:48:10.855Z,12.59
2022-12-24T15:50:43.451Z,12.47
2022-12-24T15:53:22.355Z,12.37
2022-12-24T15:56:09.216Z,12.05
2022-12-24T15:58:38.912Z,12.13
2022-12-24T16:01:15.291Z,12.12
2022-12-24T16:04:02.641Z,12.00
2022-12-24T16:07:02.056Z,11.83
2022-12-24T16:09:43.668Z,11.59
2022-12-24T16:12:20.831Z,11.30
2022-12-24T16:14:51.612Z,11.19
2022-12-24T16:17:23.719Z,11.19
2022-12-24T16:19:53.771Z,11.20
2022-12-24T16:22:31.932Z,11.12
2022-12-24T16:25:22.905Z,11.36
2022-12-24T16:27:50.735Z,11.32
2022-12-24T16:30:18.185Z,11.33
2022-12-24T16:32:46.268Z,11.68
2022-12-24T16:35:33.601Z,11.57
2022-12-24T16:38:00.117Z,11.60
2022-12-24T16:40:27.983Z,11.54
2022-12-24T16:43:15.351Z,11.76
2022-12-24T16:45:42.937Z,12.02
2022-12-24T16:48:17.006Z,12.20
2022-12-24T16:50:43.541Z,12.27
2022-12-24T16:53:17.678Z,12.29
2022-12-24T16:55:46.064Z,11.83
2022-12-24T16:58:14.298Z,11.78
2022-12-24T17:00:41.899Z,12.04
2022-12-24T17:03:09.169Z,12.33
2022-12-24T17:05:40.564Z,12.51
2022-12-24T17:08:08.164Z,12.56
2022-12-24T17:10:34.958Z,12.20
2022-12-24T17:13:01.748Z,12.60
2022-12-24T17:15:28.315Z,12.12
2022-12-24T17:17:54.865Z,12.26
2022-12-24T17:20:24.312Z,12.36
2022-12-24T17:22:51.580Z,12.61
2022-12-24T17:25:18.365Z,12.67
2022-12-24T17:27:45.025Z,12.51
2022-12-24T17:30:12.216Z,12.66
2022-12-24T17:32:39.702Z,12.58
2022-12-24T17:35:07.652Z,12.66
2022-12-24T17:37:34.615Z,12.56
2022-12-24T17:40:01.446Z,12.43
2022-12-24T17:42:27.950Z,12.17
2022-12-24T17:44:54.468Z,12.42
2022-12-24T17:47:21.001Z,12.26
2022-12-24T17:49:47.508Z,12.30
2022-12-24T17:52:13.948Z,12.23
2022-12-24T17:54:40.406Z,11.92
2022-12-24T17:57:06.845Z,12.19
2022-12-24T17:59:33.336Z,12.22
2022-12-24T18:01:59.882Z,12.51
2022-12-24T18:04:26.795Z,12.53
2022-12-24T18:06:59.625Z,12.35
2022-12-24T18:09:28.825Z,12.40
2022-12-24T18:11:55.393Z,12.31
2022-12-24T18:14:21.818Z,12.45
2022-12-24T18:16:49.442Z,12.45
2022-12-24T18:19:16.167Z,12.38
2022-12-24T18:21:42.646Z,12.14
2022-12-24T18:24:10.841Z,12.24
2022-12-24T18:26:37.603Z,12.29
2022-12-24T18:29:04.743Z,12.20
2022-12-24T18:31:33.922Z,12.18
2022-12-24T18:34:02.137Z,12.15
2022-12-24T18:36:29.096Z,12.21
2022-12-24T18:38:55.893Z,11.96
2022-12-24T18:41:25.757Z,12.13
2022-12-24T18:43:53.487Z,12.16
2022-12-24T18:46:23.749Z,12.13
2022-12-24T18:48:51.474Z,11.98
2022-12-24T18:51:22.041Z,11.77
2022-12-24T18:53:49.330Z,11.70
2022-12-24T18:56:18.903Z,11.76
2022-12-24T18:58:45.567Z,11.87
2022-12-24T19:01:15.363Z,11.84
2022-12-24T19:03:42.555Z,11.91
2022-12-24T19:06:09.358Z,11.62
2022-12-24T19:11:23.223Z,11.70
2022-12-24T19:13:50.853Z,11.98
2022-12-24T19:16:18.175Z,11.77
2022-12-24T19:18:44.944Z,11.96
2022-12-24T19:21:13.570Z,11.82
2022-12-24T19:23:40.102Z,11.97
2022-12-24T19:26:06.570Z,12.10
2022-12-24T19:28:33.214Z,12.09
2022-12-24T19:31:04.511Z,12.14
2022-12-24T19:33:31.009Z,11.95
2022-12-24T19:35:57.567Z,12.06
2022-12-24T19:38:24.072Z,12.20
2022-12-24T19:40:50.581Z,12.17
2022-12-24T19:43:17.002Z,12.01
2022-12-24T19:45:43.623Z,11.91
2022-12-24T19:48:10.483Z,11.97
2022-12-24T19:50:36.896Z,12.03
2022-12-24T19:53:03.551Z,12.15
2022-12-24T19:55:30.037Z,12.15
2022-12-24T19:57:56.573Z,12.20
2022-12-24T20:00:23.174Z,12.04
2022-12-24T20:02:49.864Z,12.08
2022-12-24T20:05:16.551Z,11.80
2022-12-24T20:07:42.999Z,11.81
2022-12-24T20:10:09.805Z,12.05
2022-12-24T20:12:36.204Z,12.21
2022-12-24T20:15:02.753Z,12.17
2022-12-24T20:17:29.192Z,12.13
2022-12-24T20:19:55.878Z,12.07
2022-12-24T20:22:22.406Z,12.04
2022-12-24T20:24:48.869Z,11.84
2022-12-24T20:27:15.544Z,11.75
2022-12-24T20:29:42.054Z,11.59
2022-12-24T20:32:08.485Z,11.60
2022-12-24T20:34:35.128Z,11.38
2022-12-24T20:37:01.629Z,11.44
2022-12-24T20:39:28.289Z,11.35
2022-12-24T20:41:54.767Z,11.30
2022-12-24T20:44:21.260Z,11.34
2022-12-24T20:46:47.791Z,11.15
2022-12-24T20:49:14.701Z,11.04
2022-12-24T20:51:41.201Z,10.91
2022-12-24T20:54:07.635Z,11.06
2022-12-24T20:56:34.225Z,10.98
2022-12-24T20:59:01.683Z,10.76
2022-12-24T21:01:29.296Z,11.02
2022-12-24T21:03:57.260Z,10.98
2022-12-24T21:06:25.028Z,11.01
2022-12-24T21:08:53.533Z,10.87
2022-12-24T21:11:39.983Z,10.88
2022-12-24T21:14:07.045Z,10.83
2022-12-24T21:16:35.354Z,10.72
2022-12-24T21:19:02.296Z,10.71
2022-12-24T21:21:28.826Z,10.75
2022-12-24T21:23:55.379Z,10.93
2022-12-24T21:26:21.887Z,10.81
2022-12-24T21:28:49.094Z,10.69
2022-12-24T21:31:16.025Z,10.74
2022-12-24T21:33:42.899Z,10.90
2022-12-24T21:36:12.223Z,10.94
2022-12-24T21:38:38.925Z,10.63
2022-12-24T21:41:08.998Z,10.65
2022-12-24T21:43:36.328Z,10.74
2022-12-24T21:46:11.191Z,10.90
2022-12-24T21:48:57.655Z,10.95
2022-12-24T21:51:26.679Z,11.00
2022-12-24T21:54:12.644Z,10.99
2022-12-24T21:56:58.333Z,10.85
2022-12-24T21:59:26.970Z,10.87
2022-12-24T22:01:54.617Z,10.87
2022-12-24T22:04:21.330Z,10.90
2022-12-24T22:07:06.561Z,10.80
2022-12-24T22:09:51.585Z,10.73
2022-12-24T22:12:18.339Z,10.72
2022-12-24T22:14:44.866Z,10.67
2022-12-24T22:17:11.672Z,10.48
2022-12-24T22:19:38.183Z,10.31
2022-12-24T22:22:04.726Z,10.29
2022-12-24T22:24:31.253Z,10.23
2022-12-24T22:26:58.181Z,10.16
2022-12-24T22:29:25.127Z,10.12
2022-12-24T22:31:51.737Z,10.13
2022-12-24T22:34:18.224Z,10.20
2022-12-24T22:36:44.759Z,10.18
2022-12-24T22:39:11.319Z,10.17
2022-12-24T22:41:37.931Z,10.34
2022-12-24T22:44:04.663Z,10.34
2022-12-24T22:46:31.207Z,10.30
2022-12-24T22:48:57.881Z,10.23
2022-12-24T22:51:24.454Z,10.11
2022-12-24T22:53:51.258Z,10.01
2022-12-24T22:56:23.038Z,10.08
2022-12-24T22:58:54.281Z,10.09
2022-12-24T23:01:38.604Z,9.97
2022-12-24T23:04:07.060Z,9.94
2022-12-24T23:06:35.294Z,9.89
2022-12-24T23:09:02.482Z,9.92
2022-12-24T23:11:28.973Z,9.84
2022-12-24T23:14:14.097Z,9.84
2022-12-24T23:16:40.533Z,9.73
2022-12-24T23:19:07.162Z,9.67
2022-12-24T23:21:34.340Z,9.69
2022-12-24T23:24:01.612Z,9.79
2022-12-24T23:26:28.832Z,9.79
2022-12-24T23:28:56.143Z,9.71
2022-12-24T23:31:24.159Z,9.85
2022-12-24T23:33:51.061Z,9.79
2022-12-24T23:36:18.018Z,9.70
2022-12-24T23:38:44.597Z,9.64
2022-12-24T23:41:11.483Z,9.72
2022-12-24T23:43:38.207Z,9.86
2022-12-24T23:46:05.370Z,9.91
2022-12-24T23:48:32.037Z,9.81
2022-12-24T23:51:06.671Z,9.89
2022-12-24T23:53:33.275Z,9.98
2022-12-24T23:56:02.176Z,9.99
2022-12-24T23:58:28.661Z,10.02
